Time;durP1;ratioP1;P1;durP2;ratioP2;P2;SDS_P1;SDS_P2;PMS_P1;PMS_P2;Temp;Humidity;BMP_temperature;BMP_pressure;BME280_temperature;BME280_humidity;BME280_pressure;Samples;Min_cycle;Max_cycle;Signal;HPM_P1;HPM_P2
2022/09/10 00:01:51;;;;;;;5.63;4.37;;;16.50;99.90;;;;;;5025116;28;20280;-51
2022/09/10 00:04:18;;;;;;;5.23;4.50;;;16.50;99.90;;;;;;5024954;28;20315;-54
2022/09/10 00:06:47;;;;;;;4.27;3.80;;;16.40;99.90;;;;;;5018988;28;20203;-51
2022/09/10 00:09:14;;;;;;;4.60;4.20;;;16.40;99.90;;;;;;5026804;28;20217;-51
2022/09/10 00:11:41;;;;;;;7.17;4.73;;;16.40;99.90;;;;;;5020661;28;20254;-48
2022/09/10 00:14:14;;;;;;;4.13;3.83;;;16.40;99.90;;;;;;5023176;28;20281;-49
2022/09/10 00:16:41;;;;;;;3.97;3.50;;;16.40;99.90;;;;;;5015835;28;20214;-53
2022/09/10 00:19:08;;;;;;;5.17;3.80;;;16.40;99.90;;;;;;5022025;28;20264;-53
2022/09/10 00:21:35;;;;;;;4.80;4.30;;;16.30;99.90;;;;;;5024347;28;20204;-53
2022/09/10 00:24:05;;;;;;;5.40;4.27;;;16.30;99.90;;;;;;5023865;28;20221;-53
2022/09/10 00:26:34;;;;;;;4.90;4.40;;;16.30;99.90;;;;;;5018943;28;20283;-53
2022/09/10 00:29:01;;;;;;;5.90;4.10;;;16.30;99.90;;;;;;5025372;28;20214;-53
2022/09/10 00:31:30;;;;;;;3.70;3.40;;;16.30;99.90;;;;;;5020464;28;20711;-52
2022/09/10 00:33:59;;;;;;;4.67;3.60;;;16.30;99.90;;;;;;5023804;28;20199;-49
2022/09/10 00:36:28;;;;;;;4.17;3.80;;;16.30;99.90;;;;;;5023928;28;20199;-52
2022/09/10 00:38:58;;;;;;;5.33;4.53;;;16.40;99.90;;;;;;5022919;28;20281;-51
2022/09/10 00:41:29;;;;;;;4.40;3.93;;;16.40;99.90;;;;;;5003182;28;20628;-52
2022/09/10 00:43:59;;;;;;;4.93;4.00;;;16.30;99.90;;;;;;5022543;28;20289;-52
2022/09/10 00:46:36;;;;;;;6.00;4.80;;;16.30;99.90;;;;;;5026770;28;20685;-53
2022/09/10 00:49:11;;;;;;;4.50;4.07;;;16.30;99.90;;;;;;5025998;28;20212;-53
2022/09/10 00:51:39;;;;;;;5.33;4.43;;;16.30;99.90;;;;;;5005381;28;20705;-52
2022/09/10 00:54:06;;;;;;;5.60;4.47;;;16.30;99.90;;;;;;5022464;28;20704;-52
2022/09/10 00:56:35;;;;;;;6.30;4.90;;;16.30;99.90;;;;;;5021345;28;20201;-51
2022/09/10 00:59:04;;;;;;;4.37;3.93;;;16.30;99.90;;;;;;5026956;28;20250;-52
2022/09/10 01:01:33;;;;;;;6.13;4.53;;;16.30;99.90;;;;;;5005861;28;20202;-52
2022/09/10 01:04:01;;;;;;;6.03;4.90;;;16.30;99.90;;;;;;5040369;28;20711;-51
2022/09/10 01:06:28;;;;;;;6.50;5.03;;;16.30;99.90;;;;;;5026394;28;20203;-49
2022/09/10 01:08:56;;;;;;;5.00;4.50;;;16.30;99.90;;;;;;5021110;28;20321;-50
2022/09/10 01:11:48;;;;;;;5.17;4.67;;;16.30;99.90;;;;;;5040261;28;20198;-49
2022/09/10 01:14:30;;;;;;;4.83;4.33;;;16.30;99.90;;;;;;5028588;28;20209;-49
2022/09/10 01:17:08;;;;;;;5.07;4.57;;;16.30;99.90;;;;;;5006916;28;20199;-49
2022/09/10 01:20:15;;;;;;;6.60;4.90;;;16.30;99.90;;;;;;5014239;28;20195;-52
2022/09/10 01:22:58;;;;;;;5.27;4.53;;;16.20;99.90;;;;;;4988602;28;20208;-52
2022/09/10 01:25:40;;;;;;;5.30;4.80;;;16.20;99.90;;;;;;5018243;28;20190;-52
2022/09/10 01:28:17;;;;;;;7.40;5.20;;;16.20;99.90;;;;;;5024090;28;20558;-52
2022/09/10 01:30:50;;;;;;;6.23;4.40;;;16.20;99.90;;;;;;5027080;28;20197;-52
2022/09/10 01:33:22;;;;;;;6.00;4.60;;;16.20;99.90;;;;;;5015266;28;20195;-47
2022/09/10 01:35:53;;;;;;;5.53;4.73;;;16.20;99.90;;;;;;5017994;28;20214;-51
2022/09/10 01:38:24;;;;;;;5.03;4.53;;;16.20;99.90;;;;;;5006616;28;20202;-46
2022/09/10 01:40:54;;;;;;;4.50;4.10;;;16.10;99.90;;;;;;5014051;28;20218;-50
2022/09/10 01:43:24;;;;;;;5.17;4.00;;;16.10;99.90;;;;;;5020136;28;20199;-53
2022/09/10 01:46:09;;;;;;;4.60;4.07;;;16.10;99.90;;;;;;5004988;28;20213;-53
2022/09/10 01:48:58;;;;;;;6.50;4.20;;;16.10;99.90;;;;;;5011386;28;20218;-52
2022/09/10 01:51:35;;;;;;;4.33;3.93;;;16.10;99.90;;;;;;5024860;28;20223;-50
2022/09/10 01:54:16;;;;;;;4.47;4.07;;;16.20;99.90;;;;;;5019026;28;20340;-51
2022/09/10 01:56:53;;;;;;;5.27;4.53;;;16.20;99.90;;;;;;5013867;28;20282;-48
2022/09/10 01:59:33;;;;;;;4.37;3.70;;;16.20;99.90;;;;;;5025768;28;20198;-47
2022/09/10 02:02:07;;;;;;;4.53;4.03;;;16.20;99.90;;;;;;5011670;28;20198;-51
2022/09/10 02:04:35;;;;;;;4.93;4.43;;;16.20;99.90;;;;;;5028917;28;20234;-47
2022/09/10 02:07:04;;;;;;;4.73;4.30;;;16.20;99.90;;;;;;5017672;28;20302;-46
2022/09/10 02:09:32;;;;;;;5.23;4.43;;;16.20;99.90;;;;;;5009785;28;20773;-51
2022/09/10 02:12:00;;;;;;;3.90;3.60;;;16.20;99.90;;;;;;5013077;28;20193;-51
2022/09/10 02:14:49;;;;;;;4.00;3.70;;;16.20;99.90;;;;;;5025477;28;20283;-53
2022/09/10 02:17:25;;;;;;;4.00;3.53;;;16.20;99.90;;;;;;5014803;28;20256;-51
2022/09/10 02:19:54;;;;;;;5.80;4.47;;;16.20;99.90;;;;;;5004667;28;20199;-50
2022/09/10 02:22:23;;;;;;;3.43;3.13;;;16.20;99.90;;;;;;5022737;28;20755;-53
2022/09/10 02:24:52;;;;;;;4.50;3.60;;;16.30;99.90;;;;;;5025064;28;20219;-50
2022/09/10 02:27:19;;;;;;;4.40;4.00;;;16.30;99.90;;;;;;5029366;28;20298;-51
2022/09/10 02:29:46;;;;;;;4.00;3.57;;;16.30;99.90;;;;;;5030289;28;20290;-50
2022/09/10 02:32:16;;;;;;;4.80;4.37;;;16.30;99.90;;;;;;5032137;28;20266;-52
2022/09/10 02:34:43;;;;;;;4.40;3.87;;;16.30;99.90;;;;;;5034418;28;20658;-53
2022/09/10 02:37:10;;;;;;;5.27;3.97;;;16.30;99.90;;;;;;5025691;28;20292;-51
2022/09/10 02:39:39;;;;;;;4.10;3.47;;;16.30;99.90;;;;;;5008811;28;20226;-49
2022/09/10 02:42:08;;;;;;;3.83;3.53;;;16.30;99.90;;;;;;5009714;28;20202;-56
2022/09/10 02:44:35;;;;;;;4.07;3.77;;;16.30;99.90;;;;;;5032802;28;20266;-52
2022/09/10 02:47:02;;;;;;;4.00;3.60;;;16.30;99.90;;;;;;5011582;28;20762;-52
2022/09/10 02:49:30;;;;;;;3.93;3.57;;;16.30;99.90;;;;;;5041973;28;20219;-47
2022/09/10 02:51:59;;;;;;;3.40;3.10;;;16.30;99.90;;;;;;5008428;28;20232;-53
2022/09/10 02:54:26;;;;;;;3.83;3.30;;;16.30;99.90;;;;;;5022968;28;20249;-53
2022/09/10 02:56:55;;;;;;;4.30;3.80;;;16.30;99.90;;;;;;5003815;28;20211;-49
2022/09/10 02:59:22;;;;;;;4.17;3.70;;;16.30;99.90;;;;;;5012127;28;20207;-52
2022/09/10 03:01:49;;;;;;;3.90;3.53;;;16.30;99.90;;;;;;5017725;28;20191;-52
2022/09/10 03:04:17;;;;;;;3.47;3.20;;;16.30;99.90;;;;;;5011677;28;20231;-52
2022/09/10 03:06:48;;;;;;;4.20;3.80;;;16.30;99.90;;;;;;5026428;28;20899;-52
2022/09/10 03:09:15;;;;;;;4.50;4.00;;;16.30;99.90;;;;;;5027076;28;20212;-51
2022/09/10 03:11:42;;;;;;;3.17;2.97;;;16.30;99.90;;;;;;5028492;28;20559;-53
2022/09/10 03:14:11;;;;;;;3.93;3.53;;;16.30;99.90;;;;;;5028868;28;20207;-51
2022/09/10 03:16:39;;;;;;;4.23;3.83;;;16.30;99.90;;;;;;5008372;28;20666;-54
2022/09/10 03:19:08;;;;;;;6.03;4.50;;;16.30;99.90;;;;;;5008800;28;20198;-54
2022/09/10 03:21:35;;;;;;;5.07;4.23;;;16.30;99.90;;;;;;5026425;28;20190;-53
2022/09/10 03:24:03;;;;;;;6.90;4.17;;;16.20;99.90;;;;;;5014003;28;20199;-50
2022/09/10 03:26:30;;;;;;;4.47;4.07;;;16.20;99.90;;;;;;5031681;28;20237;-51
2022/09/10 03:28:57;;;;;;;4.30;4.00;;;16.20;99.90;;;;;;5013164;28;20566;-49
2022/09/10 03:31:26;;;;;;;4.73;4.33;;;16.20;99.90;;;;;;5015809;28;20198;-48
2022/09/10 03:33:54;;;;;;;3.70;3.40;;;16.20;99.90;;;;;;5033111;28;20221;-53
2022/09/10 03:36:22;;;;;;;4.40;4.00;;;16.20;99.90;;;;;;5011495;28;20690;-49
2022/09/10 03:38:50;;;;;;;4.80;3.70;;;16.20;99.90;;;;;;5017456;28;20195;-49
2022/09/10 03:41:18;;;;;;;4.47;4.07;;;16.30;99.90;;;;;;5030055;28;20816;-50
2022/09/10 03:43:47;;;;;;;5.70;4.53;;;16.20;99.90;;;;;;5017804;28;20203;-50
2022/09/10 03:46:15;;;;;;;5.33;4.60;;;16.20;99.90;;;;;;5027501;28;20501;-49
2022/09/10 03:48:44;;;;;;;5.50;5.00;;;16.30;99.90;;;;;;5013421;28;20209;-48
2022/09/10 03:51:11;;;;;;;8.70;4.90;;;16.20;99.90;;;;;;5012744;28;20269;-51
2022/09/10 03:53:39;;;;;;;5.60;4.60;;;16.20;99.90;;;;;;5011969;28;20285;-51
2022/09/10 03:56:09;;;;;;;5.20;4.60;;;16.20;99.90;;;;;;5013362;28;20289;-50
2022/09/10 03:58:37;;;;;;;6.07;5.17;;;16.10;99.90;;;;;;5029899;28;20214;-51
2022/09/10 04:01:05;;;;;;;5.37;4.67;;;16.20;99.90;;;;;;5013039;28;20190;-50
2022/09/10 04:03:36;;;;;;;7.10;5.37;;;16.10;99.90;;;;;;5011801;28;20230;-50
2022/09/10 04:06:03;;;;;;;6.73;5.13;;;16.10;99.90;;;;;;5031655;28;20198;-52
2022/09/10 04:08:30;;;;;;;7.17;4.70;;;16.10;99.90;;;;;;5027839;28;20183;-49
2022/09/10 04:11:02;;;;;;;4.70;4.30;;;16.10;99.90;;;;;;5012501;28;20270;-51
2022/09/10 04:13:30;;;;;;;3.57;3.27;;;16.10;99.90;;;;;;5027642;28;20299;-47
2022/09/10 04:16:00;;;;;;;2.87;2.67;;;16.10;99.90;;;;;;5029269;28;20237;-45
2022/09/10 04:18:27;;;;;;;4.37;3.97;;;16.20;99.90;;;;;;5029138;28;20585;-45
2022/09/10 04:20:55;;;;;;;4.20;3.80;;;16.20;99.90;;;;;;5032001;28;20195;-43
2022/09/10 04:23:22;;;;;;;5.30;4.60;;;16.20;99.90;;;;;;5026942;28;20199;-45
2022/09/10 04:25:51;;;;;;;4.97;4.57;;;16.20;99.90;;;;;;5012778;28;20302;-51
2022/09/10 04:28:18;;;;;;;10.00;5.30;;;16.20;99.90;;;;;;5029260;28;20847;-50
2022/09/10 04:30:48;;;;;;;6.03;5.10;;;16.20;99.90;;;;;;5030616;28;20376;-52
2022/09/10 04:33:17;;;;;;;5.77;4.97;;;16.20;99.90;;;;;;5031890;28;20273;-52
2022/09/10 04:35:44;;;;;;;6.03;4.70;;;16.20;99.90;;;;;;5011978;28;20192;-52
2022/09/10 04:38:13;;;;;;;3.63;3.30;;;16.20;99.90;;;;;;5009469;28;20222;-52
2022/09/10 04:40:46;;;;;;;3.33;3.03;;;16.20;99.90;;;;;;5011240;28;20215;-51
2022/09/10 04:43:14;;;;;;;4.97;4.20;;;16.20;99.90;;;;;;5012501;28;20266;-51
2022/09/10 04:45:42;;;;;;;6.57;4.77;;;16.20;99.90;;;;;;5012402;28;20199;-50
2022/09/10 04:48:09;;;;;;;4.80;4.30;;;16.30;99.90;;;;;;5010375;28;20199;-53
2022/09/10 04:50:39;;;;;;;4.80;4.20;;;16.30;99.90;;;;;;5028115;28;20207;-52
2022/09/10 04:53:13;;;;;;;6.60;5.17;;;16.30;99.90;;;;;;5009922;28;20289;-52
2022/09/10 04:55:43;;;;;;;7.50;5.10;;;16.30;99.90;;;;;;5027211;28;20202;-51
2022/09/10 04:58:12;;;;;;;5.33;4.10;;;16.30;99.90;;;;;;5013886;28;20585;-52
2022/09/10 05:00:40;;;;;;;6.17;3.97;;;16.30;99.90;;;;;;5036996;28;20231;-52
2022/09/10 05:03:08;;;;;;;4.07;3.67;;;16.30;99.90;;;;;;5028701;28;20321;-51
2022/09/10 05:05:38;;;;;;;5.03;4.13;;;16.30;99.90;;;;;;5021659;28;20243;-50
2022/09/10 05:08:07;;;;;;;4.50;4.07;;;16.30;99.90;;;;;;5037800;28;20192;-50
2022/09/10 05:10:35;;;;;;;6.07;4.97;;;16.30;99.90;;;;;;5042453;28;20313;-50
2022/09/10 05:13:02;;;;;;;5.07;4.53;;;16.20;99.90;;;;;;5021935;28;20240;-52
2022/09/10 05:15:31;;;;;;;6.27;5.07;;;16.20;99.90;;;;;;5018834;28;20283;-47
2022/09/10 05:17:58;;;;;;;5.30;3.97;;;16.20;99.90;;;;;;5011020;28;20295;-46
2022/09/10 05:20:26;;;;;;;5.50;4.30;;;16.20;99.90;;;;;;5031857;28;20287;-51
2022/09/10 05:22:55;;;;;;;3.37;3.10;;;16.20;99.90;;;;;;5010235;28;20199;-51
2022/09/10 05:25:23;;;;;;;6.47;4.33;;;16.20;99.90;;;;;;5031724;28;20222;-51
2022/09/10 05:27:51;;;;;;;3.60;3.30;;;16.30;99.90;;;;;;5025492;28;20290;-47
2022/09/10 05:30:21;;;;;;;3.57;3.27;;;16.30;99.90;;;;;;5025566;28;20211;-52
2022/09/10 05:32:52;;;;;;;4.30;3.80;;;16.30;99.90;;;;;;5037460;28;20225;-47
2022/09/10 05:35:21;;;;;;;5.47;4.27;;;16.30;99.90;;;;;;5011104;28;20210;-52
2022/09/10 05:37:48;;;;;;;5.97;4.50;;;16.30;99.90;;;;;;5009779;28;20510;-52
2022/09/10 05:40:17;;;;;;;7.03;5.47;;;16.30;99.90;;;;;;5035852;28;20245;-52
2022/09/10 05:42:44;;;;;;;5.87;4.90;;;16.30;99.90;;;;;;5037108;28;20684;-50
2022/09/10 05:45:11;;;;;;;5.13;4.53;;;16.30;99.90;;;;;;5029131;28;20290;-49
2022/09/10 05:47:38;;;;;;;6.17;5.17;;;16.20;99.90;;;;;;5030681;28;20218;-51
2022/09/10 05:50:07;;;;;;;6.40;5.40;;;16.20;99.90;;;;;;5011167;28;20208;-51
2022/09/10 05:52:35;;;;;;;6.03;5.23;;;16.20;99.90;;;;;;5022765;28;20212;-49
2022/09/10 05:55:07;;;;;;;7.20;5.67;;;16.20;99.90;;;;;;5013718;28;20360;-47
2022/09/10 05:57:35;;;;;;;4.83;4.43;;;16.20;99.90;;;;;;5029615;28;20226;-46
2022/09/10 06:00:05;;;;;;;4.33;3.93;;;16.20;99.90;;;;;;5011715;28;20725;-45
2022/09/10 06:02:41;;;;;;;4.60;4.17;;;16.20;99.90;;;;;;5035553;28;20199;-49
2022/09/10 06:05:21;;;;;;;4.70;4.30;;;16.20;99.90;;;;;;5019436;28;20210;-51
2022/09/10 06:07:49;;;;;;;5.10;4.60;;;16.20;99.90;;;;;;5010682;28;20245;-48
2022/09/10 06:10:17;;;;;;;5.20;4.70;;;16.20;99.90;;;;;;5022753;28;20674;-49
2022/09/10 06:12:48;;;;;;;8.20;5.57;;;16.20;99.90;;;;;;5024477;28;20190;-44
2022/09/10 06:15:16;;;;;;;6.10;5.03;;;16.20;99.90;;;;;;5026803;28;20211;-45
2022/09/10 06:17:43;;;;;;;6.73;4.83;;;16.20;99.90;;;;;;5013172;28;20199;-48
2022/09/10 06:20:11;;;;;;;4.17;3.77;;;16.20;99.90;;;;;;5006855;28;20191;-48
2022/09/10 06:22:40;;;;;;;3.07;2.77;;;16.20;99.90;;;;;;5013046;28;20204;-49
2022/09/10 06:25:09;;;;;;;2.80;2.60;;;16.20;99.90;;;;;;5014300;28;20273;-49
2022/09/10 06:27:37;;;;;;;4.50;4.10;;;16.20;99.90;;;;;;5037093;28;20191;-44
2022/09/10 06:30:08;;;;;;;3.67;3.33;;;16.20;99.90;;;;;;5013556;28;20277;-44
2022/09/10 06:32:39;;;;;;;4.47;3.77;;;16.20;99.90;;;;;;5033935;28;20221;-48
2022/09/10 06:35:06;;;;;;;5.00;4.50;;;16.30;99.90;;;;;;5030203;28;20231;-48
2022/09/10 06:37:33;;;;;;;5.30;4.60;;;16.30;99.90;;;;;;5026184;28;20426;-50
2022/09/10 06:40:04;;;;;;;4.67;4.17;;;16.20;99.90;;;;;;5013237;28;20697;-48
2022/09/10 06:42:32;;;;;;;6.20;4.20;;;16.20;99.90;;;;;;5010570;28;20257;-45
2022/09/10 06:45:23;;;;;;;4.27;3.87;;;16.20;99.90;;;;;;5029542;28;20696;-43
2022/09/10 06:48:11;;;;;;;4.00;3.70;;;16.20;99.90;;;;;;5011759;28;20187;-43
2022/09/10 06:50:52;;;;;;;6.13;4.83;;;16.20;99.90;;;;;;5010558;28;20272;-44
2022/09/10 06:53:21;;;;;;;5.77;4.27;;;16.30;99.90;;;;;;5011011;28;20213;-44
2022/09/10 06:55:49;;;;;;;4.50;4.10;;;16.30;99.90;;;;;;5035778;28;20203;-48
2022/09/10 06:58:18;;;;;;;6.30;4.33;;;16.30;99.90;;;;;;5029060;28;20229;-45
2022/09/10 07:00:48;;;;;;;4.80;4.30;;;16.30;99.90;;;;;;5030916;28;20199;-44
2022/09/10 07:03:19;;;;;;;5.03;4.53;;;16.30;99.90;;;;;;5010695;28;20230;-55
2022/09/10 07:05:48;;;;;;;6.37;5.20;;;16.30;99.90;;;;;;5031298;28;20205;-48
2022/09/10 07:08:19;;;;;;;8.47;5.47;;;16.20;99.90;;;;;;5011681;28;20206;-47
2022/09/10 07:10:52;;;;;;;7.97;5.47;;;16.20;99.90;;;;;;5015033;28;20227;-46
2022/09/10 07:13:20;;;;;;;5.73;4.73;;;16.20;99.90;;;;;;5035078;28;20667;-48
2022/09/10 07:15:48;;;;;;;6.40;4.87;;;16.20;99.90;;;;;;5031093;28;20210;-47
2022/09/10 07:18:17;;;;;;;4.87;4.40;;;16.20;99.90;;;;;;5011730;28;20253;-46
2022/09/10 07:20:46;;;;;;;3.33;3.13;;;16.30;99.90;;;;;;5033317;28;20289;-53
2022/09/10 07:23:14;;;;;;;2.93;2.70;;;16.30;99.90;;;;;;5030228;28;20651;-52
2022/09/10 07:25:42;;;;;;;3.17;2.87;;;16.30;99.90;;;;;;5031023;28;20219;-52
2022/09/10 07:28:18;;;;;;;4.00;3.70;;;16.30;99.90;;;;;;5017944;28;20204;-48
2022/09/10 07:30:48;;;;;;;4.77;4.20;;;16.40;99.90;;;;;;5038550;28;20207;-50
2022/09/10 07:33:16;;;;;;;4.43;3.67;;;16.40;99.90;;;;;;5014884;28;20343;-51
2022/09/10 07:35:44;;;;;;;3.77;3.40;;;16.50;99.90;;;;;;5012289;28;20197;-48
2022/09/10 07:38:14;;;;;;;6.57;5.20;;;17.40;99.90;;;;;;5016227;28;20729;-52
2022/09/10 07:40:43;;;;;;;6.37;4.90;;;16.50;99.90;;;;;;5013370;28;20246;-51
2022/09/10 07:43:10;;;;;;;5.03;4.40;;;16.40;99.90;;;;;;5030720;28;20305;-50
2022/09/10 07:45:39;;;;;;;6.33;4.30;;;16.40;99.90;;;;;;5012382;28;20280;-51
2022/09/10 07:48:08;;;;;;;5.70;4.80;;;16.40;99.90;;;;;;5030673;28;20278;-52
2022/09/10 07:50:38;;;;;;;5.30;4.40;;;16.40;99.90;;;;;;5019381;28;20199;-47
2022/09/10 07:53:06;;;;;;;9.60;6.13;;;16.40;99.90;;;;;;5011462;28;20195;-48
2022/09/10 07:55:35;;;;;;;10.07;7.17;;;16.40;99.90;;;;;;5037402;28;20203;-52
2022/09/10 07:58:02;;;;;;;6.77;5.47;;;16.30;99.90;;;;;;5013927;28;20205;-49
2022/09/10 08:00:31;;;;;;;8.10;6.03;;;16.30;99.90;;;;;;5018546;28;20204;-50
2022/09/10 08:03:04;;;;;;;4.90;4.37;;;16.20;99.90;;;;;;5028433;28;20228;-46
2022/09/10 08:05:32;;;;;;;5.77;4.10;;;16.20;99.90;;;;;;5017314;28;20323;-46
2022/09/10 08:08:01;;;;;;;3.23;3.03;;;16.30;99.90;;;;;;5011130;28;20871;-47
2022/09/10 08:10:29;;;;;;;7.07;5.10;;;16.30;99.90;;;;;;5045077;28;20281;-52
2022/09/10 08:12:58;;;;;;;7.23;5.60;;;16.30;99.90;;;;;;5016908;28;20316;-48
2022/09/10 08:15:25;;;;;;;6.53;5.13;;;16.30;99.90;;;;;;5034887;28;20186;-49
2022/09/10 08:17:52;;;;;;;8.03;5.77;;;16.30;99.90;;;;;;5011810;28;20289;-53
2022/09/10 08:20:24;;;;;;;7.13;4.90;;;16.30;99.90;;;;;;5016579;28;20230;-51
2022/09/10 08:22:54;;;;;;;6.40;4.93;;;16.40;99.90;;;;;;5024446;28;20198;-47
2022/09/10 08:25:21;;;;;;;7.13;5.23;;;16.30;99.90;;;;;;5029755;28;20192;-52
2022/09/10 08:27:49;;;;;;;7.20;4.97;;;16.30;99.90;;;;;;5018322;28;20641;-51
2022/09/10 08:30:16;;;;;;;8.07;5.80;;;16.30;99.90;;;;;;5019460;28;20654;-47
2022/09/10 08:32:43;;;;;;;8.13;5.20;;;16.30;99.90;;;;;;5020166;28;20543;-46
2022/09/10 08:35:13;;;;;;;10.27;5.90;;;16.30;99.90;;;;;;5039213;28;20616;-52
2022/09/10 08:37:41;;;;;;;7.33;5.20;;;16.30;99.90;;;;;;5028186;28;20253;-51
2022/09/10 08:40:12;;;;;;;6.53;5.37;;;16.30;99.90;;;;;;5027427;28;20210;-52
2022/09/10 08:42:42;;;;;;;6.40;4.87;;;16.30;99.90;;;;;;5012337;28;20690;-50
2022/09/10 08:45:13;;;;;;;6.47;5.03;;;16.30;99.90;;;;;;5020668;28;20265;-53
2022/09/10 08:47:50;;;;;;;5.77;4.80;;;16.30;99.90;;;;;;5034368;28;20681;-54
2022/09/10 08:50:32;;;;;;;4.63;3.93;;;16.40;99.90;;;;;;5040792;28;20188;-51
2022/09/10 08:53:05;;;;;;;7.03;5.23;;;16.40;99.90;;;;;;5037223;28;20565;-50
2022/09/10 08:55:38;;;;;;;7.27;5.63;;;16.40;99.90;;;;;;5016707;28;20192;-53
2022/09/10 08:58:13;;;;;;;4.27;3.73;;;16.40;99.90;;;;;;5016412;28;20608;-50
2022/09/10 09:00:44;;;;;;;3.20;3.00;;;16.50;99.90;;;;;;5042276;28;20226;-52
2022/09/10 09:03:21;;;;;;;2.80;2.60;;;16.50;99.90;;;;;;5011645;28;20231;-54
2022/09/10 09:05:52;;;;;;;5.20;3.57;;;16.60;99.90;;;;;;5012806;28;20217;-49
2022/09/10 09:08:24;;;;;;;3.93;3.43;;;16.60;99.90;;;;;;5037992;28;20227;-54
2022/09/10 09:11:04;;;;;;;4.87;3.87;;;16.60;99.90;;;;;;5033401;28;20301;-52
2022/09/10 09:13:48;;;;;;;7.00;5.40;;;16.70;99.90;;;;;;5032164;28;20251;-49
2022/09/10 09:16:40;;;;;;;7.40;5.63;;;16.60;99.90;;;;;;5026062;28;20287;-51
2022/09/10 09:19:19;;;;;;;4.73;4.20;;;16.70;99.90;;;;;;5012798;28;20292;-52
2022/09/10 09:21:51;;;;;;;4.07;3.67;;;16.70;99.90;;;;;;5030240;28;20555;-50
2022/09/10 09:24:30;;;;;;;6.27;5.50;;;16.70;99.90;;;;;;5022171;28;20199;-52
2022/09/10 09:27:02;;;;;;;7.77;6.33;;;16.60;99.90;;;;;;5041667;28;20220;-50
2022/09/10 09:29:34;;;;;;;7.23;5.23;;;16.70;99.90;;;;;;5036340;28;20825;-54
2022/09/10 09:32:05;;;;;;;4.30;3.90;;;16.60;99.90;;;;;;5019463;28;20245;-48
2022/09/10 09:34:38;;;;;;;4.17;3.60;;;16.60;99.90;;;;;;5035080;28;20290;-51
2022/09/10 09:37:18;;;;;;;8.90;4.47;;;16.60;99.90;;;;;;5034080;28;20301;-52
2022/09/10 09:39:52;;;;;;;8.07;5.90;;;16.60;99.90;;;;;;5038266;28;20632;-54
2022/09/10 09:42:30;;;;;;;6.60;5.67;;;16.60;99.90;;;;;;5027699;28;20193;-51
2022/09/10 09:45:05;;;;;;;5.77;4.60;;;16.60;99.90;;;;;;5038863;28;20200;-48
2022/09/10 09:47:32;;;;;;;8.93;6.17;;;16.60;99.90;;;;;;5035318;28;20269;-49
2022/09/10 09:50:00;;;;;;;9.00;6.33;;;16.60;99.90;;;;;;5014550;28;20195;-52
2022/09/10 09:52:31;;;;;;;5.50;4.63;;;16.60;99.90;;;;;;5040234;28;20230;-52
2022/09/10 09:55:03;;;;;;;3.90;3.50;;;16.50;99.90;;;;;;5033862;28;20605;-51
2022/09/10 09:57:31;;;;;;;8.33;5.57;;;16.60;99.90;;;;;;5031080;28;20188;-52
2022/09/10 10:00:30;;;;;;;6.10;4.73;;;16.60;99.90;;;;;;5028223;28;20213;-51
2022/09/10 10:03:06;;;;;;;3.87;3.20;;;16.60;99.90;;;;;;5031529;28;20230;-52
2022/09/10 10:05:34;;;;;;;3.13;2.83;;;16.70;99.90;;;;;;5034246;28;20609;-52
2022/09/10 10:08:02;;;;;;;3.55;3.25;;;16.70;99.90;;;;;;5035863;28;20651;-49
2022/09/10 10:10:29;;;;;;;3.50;3.20;;;16.80;99.90;;;;;;5036874;28;20211;-50
2022/09/10 10:12:57;;;;;;;4.10;3.70;;;16.80;99.90;;;;;;5037959;28;20295;-52
2022/09/10 10:15:37;;;;;;;4.57;3.70;;;16.80;99.90;;;;;;5036264;28;20642;-49
2022/09/10 10:18:28;;;;;;;5.73;4.70;;;16.80;99.90;;;;;;5033204;28;20204;-53
2022/09/10 10:21:14;;;;;;;4.30;3.90;;;16.90;99.90;;;;;;5040200;28;20289;-51
2022/09/10 10:23:42;;;;;;;15.33;6.30;;;16.90;99.90;;;;;;5032183;28;20196;-53
2022/09/10 10:26:33;;;;;;;8.10;5.55;;;16.90;99.90;;;;;;5032430;28;20680;-49
2022/09/10 10:29:05;;;;;;;8.93;6.17;;;16.90;99.90;;;;;;5007624;28;20280;-46
2022/09/10 10:31:37;;;;;;;5.60;4.50;;;16.90;99.90;;;;;;5031330;28;20206;-49
2022/09/10 10:34:30;;;;;;;4.25;3.85;;;16.90;99.90;;;;;;5039743;28;20218;-53
2022/09/10 10:37:07;;;;;;;4.10;3.70;;;16.80;99.90;;;;;;5037290;28;20299;-50
2022/09/10 10:39:54;;;;;;;3.47;3.17;;;16.90;99.90;;;;;;5036306;28;20197;-45
2022/09/10 10:42:27;;;;;;;3.00;2.73;;;16.90;99.90;;;;;;5038347;28;20190;-48
2022/09/10 10:45:10;;;;;;;2.20;2.10;;;17.00;99.90;;;;;;5039867;28;20196;-52
2022/09/10 10:47:47;;;;;;;2.30;2.20;;;17.10;99.90;;;;;;5038359;28;20189;-45
2022/09/10 10:50:29;;;;;;;3.33;3.03;;;17.10;99.90;;;;;;5041032;28;20287;-52
2022/09/10 10:53:14;;;;;;;2.95;2.70;;;17.20;99.90;;;;;;5041086;28;20259;-54
2022/09/10 10:55:46;;;;;;;3.63;3.33;;;17.10;99.90;;;;;;5045841;28;20224;-54
2022/09/10 10:58:32;;;;;;;4.97;4.35;;;17.20;99.90;;;;;;5043992;28;20221;-46
2022/09/10 11:01:04;;;;;;;7.22;5.93;;;17.20;99.90;;;;;;5035137;28;20198;-49
2022/09/10 11:03:38;;;;;;;7.43;5.60;;;17.20;99.90;;;;;;5036663;28;20358;-49
2022/09/10 11:06:11;;;;;;;5.82;4.80;;;17.10;99.90;;;;;;5042079;28;20197;-44
2022/09/10 11:08:44;;;;;;;4.82;4.20;;;17.20;99.90;;;;;;5036677;28;20287;-52
2022/09/10 11:11:16;;;;;;;3.00;2.80;;;17.20;99.90;;;;;;5034111;28;20191;-47
2022/09/10 11:13:49;;;;;;;2.65;2.45;;;17.20;99.90;;;;;;5038510;28;20689;-48
2022/09/10 11:16:24;;;;;;;2.70;2.50;;;17.20;99.90;;;;;;5036429;28;20711;-48
2022/09/10 11:18:55;;;;;;;3.60;3.28;;;17.20;99.90;;;;;;5028053;28;20283;-49
2022/09/10 11:21:28;;;;;;;4.60;4.20;;;17.20;99.90;;;;;;5033189;28;20285;-50
2022/09/10 11:24:00;;;;;;;5.15;4.35;;;17.20;99.90;;;;;;5040328;28;20197;-49
2022/09/10 11:26:31;;;;;;;4.53;4.10;;;17.30;99.90;;;;;;5037908;28;20270;-51
2022/09/10 11:29:21;;;;;;;5.10;4.60;;;17.30;99.90;;;;;;5035709;28;20198;-50
2022/09/10 11:31:58;;;;;;;5.65;4.47;;;17.30;99.90;;;;;;5034746;28;20221;-52
2022/09/10 11:34:33;;;;;;;4.95;4.45;;;17.20;99.90;;;;;;5035692;28;20683;-48
2022/09/10 11:37:09;;;;;;;9.30;6.57;;;17.20;99.90;;;;;;5035302;28;20228;-53
2022/09/10 11:39:42;;;;;;;9.15;7.10;;;17.20;99.90;;;;;;5044665;28;20683;-49
2022/09/10 11:42:17;;;;;;;9.68;6.82;;;17.20;99.90;;;;;;5037313;28;20222;-52
2022/09/10 11:44:52;;;;;;;6.60;5.63;;;17.20;99.90;;;;;;5040512;28;20244;-53
2022/09/10 11:47:25;;;;;;;6.18;4.75;;;17.10;99.90;;;;;;5033406;28;20280;-53
2022/09/10 11:49:59;;;;;;;7.13;5.77;;;17.10;99.90;;;;;;5034230;28;20197;-49
2022/09/10 11:52:28;;;;;;;4.13;3.72;;;17.10;99.90;;;;;;5038019;28;20227;-52
2022/09/10 11:54:57;;;;;;;5.33;4.83;;;17.10;99.90;;;;;;5041868;28;20198;-52
2022/09/10 11:57:33;;;;;;;6.05;5.45;;;17.10;99.90;;;;;;5033941;28;20285;-52
2022/09/10 12:00:14;;;;;;;6.45;5.63;;;17.10;99.90;;;;;;5032326;28;20506;-50
2022/09/10 12:03:16;;;;;;;6.32;5.65;;;17.10;99.90;;;;;;5036771;28;20184;-52
2022/09/10 12:05:54;;;;;;;7.28;5.95;;;17.10;99.90;;;;;;5030263;28;20198;-53
2022/09/10 12:08:37;;;;;;;6.88;5.60;;;17.00;99.90;;;;;;5028131;28;20223;-51
2022/09/10 12:11:19;;;;;;;5.67;5.07;;;17.00;99.90;;;;;;5030225;28;20601;-50
2022/09/10 12:13:48;;;;;;;4.55;3.97;;;16.90;99.90;;;;;;5026686;28;20680;-52
2022/09/10 12:16:21;;;;;;;5.37;4.87;;;16.90;99.90;;;;;;5030472;28;20220;-50
2022/09/10 12:18:52;;;;;;;9.60;6.90;;;17.00;99.90;;;;;;5029977;28;20269;-54
2022/09/10 12:21:32;;;;;;;8.50;6.65;;;17.00;99.90;;;;;;5029054;28;20297;-51
2022/09/10 12:24:01;;;;;;;7.90;6.17;;;17.00;99.90;;;;;;5029548;28;20196;-51
2022/09/10 12:26:28;;;;;;;6.50;5.37;;;17.00;99.90;;;;;;5011000;28;20202;-48
2022/09/10 12:29:06;;;;;;;4.53;4.00;;;16.90;99.90;;;;;;5029724;28;20194;-54
2022/09/10 12:32:18;;;;;;;3.88;3.50;;;16.90;99.90;;;;;;5031019;28;20637;-52
2022/09/10 12:34:48;;;;;;;4.95;4.50;;;17.00;99.90;;;;;;4927637;29;20217;-51
2022/09/10 12:37:21;;;;;;;7.65;6.10;;;17.10;99.90;;;;;;5002975;28;20222;-50
2022/09/10 12:39:49;;;;;;;6.88;5.82;;;17.10;99.90;;;;;;5022216;28;20207;-48
2022/09/10 12:42:33;;;;;;;6.00;4.80;;;17.20;99.90;;;;;;5028692;28;20205;-52
2022/09/10 12:45:01;;;;;;;6.50;5.43;;;17.20;99.90;;;;;;5029412;28;20194;-51
2022/09/10 12:47:39;;;;;;;5.50;4.90;;;17.20;99.90;;;;;;5026276;28;20289;-49
2022/09/10 12:50:23;;;;;;;7.75;5.13;;;17.20;99.90;;;;;;5028713;28;20273;-51
2022/09/10 12:53:19;;;;;;;4.78;4.32;;;17.10;99.90;;;;;;5028654;28;20245;-53
2022/09/10 12:55:58;;;;;;;5.30;4.80;;;17.20;99.90;;;;;;5030240;28;20197;-53
2022/09/10 12:58:37;;;;;;;6.40;5.10;;;17.20;99.90;;;;;;5027821;28;20548;-50
2022/09/10 13:01:15;;;;;;;4.28;3.80;;;17.10;99.90;;;;;;5030045;28;20246;-52
2022/09/10 13:03:50;;;;;;;3.45;3.22;;;17.10;99.90;;;;;;5025091;28;20313;-52
2022/09/10 13:06:19;;;;;;;4.63;2.90;;;17.20;99.90;;;;;;5030043;28;20276;-49
2022/09/10 13:08:47;;;;;;;2.80;2.60;;;17.20;99.90;;;;;;5030338;28;20609;-52
2022/09/10 13:11:20;;;;;;;4.20;3.45;;;17.20;99.90;;;;;;5040508;28;20284;-50